Time;durP1;ratioP1;P1;durP2;ratioP2;P2;SDS_P1;SDS_P2;PMS_P1;PMS_P2;Temp;Humidity;BMP_temperature;BMP_pressure;BME280_temperature;BME280_humidity;BME280_pressure;Samples;Min_cycle;Max_cycle;Signal;HPM_P1;HPM_P2
2023/06/26 00:01:23;;;;;;;3.97;3.58;;;21.70;99.90;;;;;;4937823;29;20388;-91
2023/06/26 00:03:49;;;;;;;4.90;4.15;;;21.70;99.90;;;;;;4936371;29;20047;-90
2023/06/26 00:06:15;;;;;;;4.45;3.78;;;21.70;99.90;;;;;;4905131;29;20114;-91
2023/06/26 00:08:40;;;;;;;4.50;4.10;;;21.70;99.90;;;;;;4919691;29;20048;-90
2023/06/26 00:11:06;;;;;;;4.80;4.10;;;21.70;99.90;;;;;;4921925;29;20545;-90
2023/06/26 00:13:32;;;;;;;4.45;4.05;;;21.70;99.90;;;;;;4921565;29;20459;-92
2023/06/26 00:16:00;;;;;;;4.25;3.85;;;21.70;99.90;;;;;;4922162;29;20046;-91
2023/06/26 00:18:25;;;;;;;4.28;3.88;;;21.70;99.90;;;;;;4921239;29;20039;-92
2023/06/26 00:20:51;;;;;;;4.43;4.03;;;21.70;99.90;;;;;;4921712;29;20062;-90
2023/06/26 00:23:17;;;;;;;4.30;3.90;;;21.70;99.90;;;;;;4936118;29;20484;-90
2023/06/26 00:25:44;;;;;;;4.10;3.70;;;21.70;99.90;;;;;;4921849;29;20043;-91
2023/06/26 00:28:12;;;;;;;4.15;3.75;;;21.70;99.90;;;;;;4920479;29;20514;-91
2023/06/26 00:30:41;;;;;;;5.05;4.00;;;21.70;99.90;;;;;;4929229;29;20044;-92
2023/06/26 00:33:06;;;;;;;5.28;3.92;;;21.70;99.90;;;;;;4918496;29;20055;-91
2023/06/26 00:35:32;;;;;;;4.50;4.10;;;21.70;99.90;;;;;;4921340;29;20047;-91
2023/06/26 00:37:58;;;;;;;4.72;3.70;;;21.70;99.90;;;;;;4904018;29;20039;-91
2023/06/26 00:40:23;;;;;;;5.88;4.05;;;21.70;99.90;;;;;;4902881;29;20406;-91
2023/06/26 00:42:50;;;;;;;5.10;4.38;;;21.70;99.90;;;;;;4899478;29;20063;-91
2023/06/26 00:45:16;;;;;;;4.13;3.72;;;21.70;99.90;;;;;;4911281;28;20043;-90
2023/06/26 00:47:41;;;;;;;4.65;4.25;;;21.70;99.90;;;;;;4922906;29;20086;-90
2023/06/26 00:50:08;;;;;;;5.30;3.88;;;21.70;99.90;;;;;;4941431;29;20047;-91
2023/06/26 00:52:33;;;;;;;4.22;3.83;;;21.70;99.90;;;;;;4940174;29;20047;-90
2023/06/26 00:55:00;;;;;;;4.53;4.13;;;21.70;99.90;;;;;;4922481;29;20102;-90
2023/06/26 00:57:26;;;;;;;4.43;3.97;;;21.70;99.90;;;;;;4924470;29;20039;-91
2023/06/26 00:59:52;;;;;;;4.63;4.18;;;21.70;99.90;;;;;;4946502;29;20608;-91
2023/06/26 01:02:20;;;;;;;5.57;4.53;;;21.70;99.90;;;;;;4914494;29;20040;-91
2023/06/26 01:04:48;;;;;;;4.60;4.20;;;21.70;99.90;;;;;;4941377;29;20438;-90
2023/06/26 01:07:15;;;;;;;4.25;3.85;;;21.60;99.90;;;;;;4928400;29;20047;-90
2023/06/26 01:09:42;;;;;;;5.13;4.13;;;21.60;99.90;;;;;;4938382;29;20044;-91
2023/06/26 01:12:08;;;;;;;5.70;4.50;;;21.60;99.90;;;;;;4913287;29;20074;-91
2023/06/26 01:14:36;;;;;;;5.03;4.43;;;21.60;99.90;;;;;;4940737;29;20051;-90
2023/06/26 01:17:02;;;;;;;5.10;4.30;;;21.60;99.90;;;;;;4928857;29;20798;-90
2023/06/26 01:19:30;;;;;;;5.50;4.25;;;21.60;99.90;;;;;;4936651;29;20036;-90
2023/06/26 01:22:17;;;;;;;4.40;4.05;;;21.60;99.90;;;;;;4937105;29;20534;-90
2023/06/26 01:25:00;;;;;;;5.25;4.75;;;21.60;99.90;;;;;;4940329;29;20043;-90
2023/06/26 01:27:28;;;;;;;4.88;4.47;;;21.60;99.90;;;;;;4922811;29;20126;-91
2023/06/26 01:29:55;;;;;;;4.78;4.38;;;21.60;99.90;;;;;;4935287;29;20031;-90
2023/06/26 01:32:22;;;;;;;4.78;4.32;;;21.60;99.90;;;;;;4931618;29;20411;-91
2023/06/26 01:34:48;;;;;;;5.45;4.30;;;21.60;99.90;;;;;;4908354;29;20046;-91
2023/06/26 01:37:13;;;;;;;4.93;4.50;;;21.50;99.90;;;;;;4940305;29;20126;-91
2023/06/26 01:39:39;;;;;;;4.55;4.15;;;21.50;99.90;;;;;;4919038;29;20385;-90
2023/06/26 01:42:05;;;;;;;4.20;3.90;;;21.60;99.90;;;;;;4917449;29;20503;-92
2023/06/26 01:44:37;;;;;;;4.80;4.30;;;21.50;99.90;;;;;;4902909;29;20047;-92
2023/06/26 01:47:04;;;;;;;4.75;4.30;;;21.50;99.90;;;;;;4931555;29;20035;-90
2023/06/26 01:49:40;;;;;;;4.85;4.10;;;21.50;99.90;;;;;;4932873;29;20047;-91
2023/06/26 01:52:32;;;;;;;5.82;4.90;;;21.40;99.90;;;;;;4929799;29;20038;-91
2023/06/26 01:55:19;;;;;;;6.47;5.00;;;21.50;99.90;;;;;;4958330;28;20047;-91
2023/06/26 01:57:47;;;;;;;5.53;5.03;;;21.50;99.90;;;;;;4936141;29;20047;-91
2023/06/26 02:00:17;;;;;;;5.68;5.18;;;21.40;99.90;;;;;;4937573;29;20078;-92
2023/06/26 02:02:44;;;;;;;5.45;4.95;;;21.40;99.90;;;;;;4938971;29;20527;-91
2023/06/26 02:05:10;;;;;;;6.15;4.65;;;21.40;99.90;;;;;;4920410;29;20050;-91
2023/06/26 02:07:35;;;;;;;6.15;5.43;;;21.30;99.90;;;;;;4927622;29;20046;-92
2023/06/26 02:10:02;;;;;;;5.50;4.95;;;21.30;99.90;;;;;;4924612;29;20089;-90
2023/06/26 02:12:28;;;;;;;7.03;5.25;;;21.20;99.90;;;;;;4934711;29;20051;-91
2023/06/26 02:14:54;;;;;;;5.05;4.55;;;21.20;99.90;;;;;;4904696;29;20051;-91
2023/06/26 02:17:19;;;;;;;5.50;4.68;;;21.20;99.90;;;;;;4907161;29;20502;-90
2023/06/26 02:19:47;;;;;;;5.22;4.78;;;21.10;99.90;;;;;;4920463;29;20043;-91
2023/06/26 02:22:16;;;;;;;5.15;4.75;;;21.10;99.90;;;;;;4924477;29;20090;-91
2023/06/26 02:24:43;;;;;;;5.75;5.15;;;21.10;99.90;;;;;;4939593;29;20051;-92
2023/06/26 02:27:09;;;;;;;5.43;4.97;;;21.10;99.90;;;;;;4924473;29;20044;-91
2023/06/26 02:29:35;;;;;;;5.40;4.90;;;21.10;99.90;;;;;;4922561;29;20065;-91
2023/06/26 02:32:01;;;;;;;5.35;4.85;;;21.10;99.90;;;;;;4939131;29;20043;-91
2023/06/26 02:34:27;;;;;;;5.00;4.60;;;21.10;99.90;;;;;;4920347;29;20128;-91
2023/06/26 02:36:56;;;;;;;6.95;4.78;;;21.00;99.90;;;;;;4939204;29;20127;-92
2023/06/26 02:39:22;;;;;;;7.45;5.30;;;21.00;99.90;;;;;;4923212;29;20039;-91
2023/06/26 02:41:48;;;;;;;4.97;4.47;;;21.00;99.90;;;;;;4921420;29;20097;-90
2023/06/26 02:44:14;;;;;;;5.30;4.80;;;21.00;99.90;;;;;;4935875;29;20043;-91
2023/06/26 02:46:40;;;;;;;5.53;4.97;;;21.00;99.90;;;;;;4923728;29;20039;-92
2023/06/26 02:49:06;;;;;;;5.50;5.00;;;21.00;99.90;;;;;;4939563;29;20078;-91
2023/06/26 02:51:35;;;;;;;5.13;4.55;;;21.00;99.90;;;;;;4923169;29;20035;-91
2023/06/26 02:54:01;;;;;;;5.30;4.88;;;21.00;99.90;;;;;;4919537;29;20035;-92
2023/06/26 02:56:28;;;;;;;5.10;4.60;;;21.00;99.90;;;;;;4922888;29;20039;-92
2023/06/26 02:58:57;;;;;;;4.90;4.38;;;21.00;99.90;;;;;;4938952;29;20118;-92
2023/06/26 03:01:23;;;;;;;5.22;4.72;;;21.00;99.90;;;;;;4920099;29;20075;-92
2023/06/26 03:03:49;;;;;;;4.78;4.38;;;21.00;99.90;;;;;;4914809;29;20138;-92
2023/06/26 03:06:15;;;;;;;5.13;4.72;;;21.00;99.90;;;;;;4937915;29;20059;-92
2023/06/26 03:08:41;;;;;;;5.43;4.93;;;21.00;99.90;;;;;;4936429;28;20079;-92
2023/06/26 03:11:08;;;;;;;5.05;4.55;;;21.00;99.90;;;;;;4922568;29;20097;-93
2023/06/26 03:13:35;;;;;;;5.55;5.05;;;21.00;99.90;;;;;;4922291;29;20102;-93
2023/06/26 03:16:02;;;;;;;5.93;5.00;;;20.90;99.90;;;;;;4916729;29;20055;-91
2023/06/26 03:18:28;;;;;;;4.65;4.13;;;20.90;99.90;;;;;;4922752;29;20070;-91
2023/06/26 03:20:55;;;;;;;5.28;4.78;;;20.90;99.90;;;;;;4934901;29;20074;-91
2023/06/26 03:23:20;;;;;;;;;;;20.90;99.90;;;;;;4922549;29;20067;-91
2023/06/26 03:25:47;;;;;;;4.57;4.15;;;20.90;99.90;;;;;;4952996;29;19922;-92
2023/06/26 03:28:13;;;;;;;5.18;4.47;;;20.90;99.90;;;;;;4907174;29;20043;-91
2023/06/26 03:30:39;;;;;;;5.00;4.60;;;20.90;99.90;;;;;;4906606;29;20637;-91
2023/06/26 03:33:04;;;;;;;4.73;4.33;;;20.90;99.90;;;;;;4938853;29;20043;-91
2023/06/26 03:35:30;;;;;;;5.55;4.63;;;21.00;99.90;;;;;;4907975;29;20035;-91
2023/06/26 03:37:56;;;;;;;4.50;4.10;;;21.00;99.90;;;;;;4922782;29;20126;-92
2023/06/26 03:40:22;;;;;;;5.50;4.80;;;21.00;99.90;;;;;;4902903;29;20044;-91
2023/06/26 03:42:48;;;;;;;4.80;4.30;;;21.10;99.90;;;;;;4949445;28;20051;-91
2023/06/26 03:45:14;;;;;;;4.75;4.25;;;21.10;99.90;;;;;;4907922;29;20499;-92
2023/06/26 03:47:39;;;;;;;6.22;4.57;;;21.20;99.90;;;;;;4921967;29;20099;-91
2023/06/26 03:50:05;;;;;;;4.43;4.03;;;21.20;99.90;;;;;;4920957;29;20562;-90
2023/06/26 03:52:31;;;;;;;6.57;4.33;;;21.20;99.90;;;;;;4922113;29;20053;-91
2023/06/26 03:54:58;;;;;;;4.68;4.28;;;21.30;99.90;;;;;;4903518;29;20044;-91
2023/06/26 03:57:24;;;;;;;4.47;4.10;;;21.30;99.90;;;;;;4920788;29;20050;-91
2023/06/26 03:59:50;;;;;;;5.47;4.32;;;21.40;99.90;;;;;;4937681;29;20237;-91
2023/06/26 04:02:16;;;;;;;4.70;3.85;;;21.40;99.90;;;;;;4922215;29;20027;-91
2023/06/26 04:04:42;;;;;;;4.72;4.32;;;21.40;99.90;;;;;;4906124;29;20120;-91
2023/06/26 04:07:07;;;;;;;6.95;4.15;;;21.40;99.90;;;;;;4919817;29;20039;-91
2023/06/26 04:09:33;;;;;;;4.07;3.65;;;21.40;99.90;;;;;;4921175;29;20094;-91
2023/06/26 04:11:59;;;;;;;4.00;3.63;;;21.50;99.90;;;;;;4904606;29;20035;-91
2023/06/26 04:14:24;;;;;;;6.38;4.20;;;21.40;99.90;;;;;;4921987;29;20554;-91
2023/06/26 04:16:50;;;;;;;4.90;4.35;;;21.50;99.90;;;;;;4963937;28;20043;-91
2023/06/26 04:19:16;;;;;;;4.93;3.80;;;21.50;99.90;;;;;;4901250;29;20098;-92
2023/06/26 04:21:42;;;;;;;5.57;3.67;;;21.40;99.90;;;;;;4920062;29;20091;-92
2023/06/26 04:24:07;;;;;;;4.05;3.30;;;21.40;99.90;;;;;;4906368;29;20046;-91
2023/06/26 04:26:33;;;;;;;5.82;4.40;;;21.40;99.90;;;;;;4921854;29;20057;-91
2023/06/26 04:28:59;;;;;;;5.32;3.92;;;21.50;99.90;;;;;;4906264;29;20035;-91
2023/06/26 04:31:25;;;;;;;5.47;4.35;;;21.50;99.90;;;;;;4913940;29;20098;-91
2023/06/26 04:33:51;;;;;;;4.20;3.80;;;21.50;99.90;;;;;;4921340;29;20038;-91
2023/06/26 04:36:19;;;;;;;4.90;4.00;;;21.60;99.90;;;;;;4920500;29;20527;-90
2023/06/26 04:38:45;;;;;;;4.20;3.80;;;21.70;99.90;;;;;;4953353;29;20043;-91
2023/06/26 04:41:11;;;;;;;5.20;3.83;;;21.70;99.90;;;;;;4922222;29;20676;-93
2023/06/26 04:43:36;;;;;;;5.90;4.15;;;21.80;99.90;;;;;;4918588;29;20408;-91
2023/06/26 04:46:03;;;;;;;4.95;4.00;;;21.80;99.90;;;;;;4930781;29;20043;-91
2023/06/26 04:48:30;;;;;;;4.85;3.83;;;21.90;99.90;;;;;;4922312;29;20067;-93
2023/06/26 04:50:58;;;;;;;5.28;4.07;;;21.90;99.90;;;;;;4921298;29;20047;-87
2023/06/26 04:53:25;;;;;;;4.50;3.80;;;21.90;99.90;;;;;;4915267;29;20086;-91
2023/06/26 04:55:51;;;;;;;4.43;3.40;;;22.10;99.90;;;;;;4922252;28;20030;-90
2023/06/26 04:58:17;;;;;;;5.43;3.72;;;22.10;99.90;;;;;;4923721;29;20043;-89
2023/06/26 05:00:43;;;;;;;4.68;3.78;;;22.10;99.90;;;;;;4924138;29;20071;-86
2023/06/26 05:03:11;;;;;;;6.00;3.95;;;22.10;99.90;;;;;;4945079;29;20031;-86
2023/06/26 05:05:36;;;;;;;5.40;3.58;;;22.10;99.90;;;;;;4958799;28;20035;-87
2023/06/26 05:08:14;;;;;;;4.80;3.90;;;22.10;99.90;;;;;;4925332;28;20027;-92
2023/06/26 05:10:40;;;;;;;5.45;3.90;;;22.10;99.90;;;;;;4955015;28;20042;-87
2023/06/26 05:13:06;;;;;;;4.75;3.28;;;22.00;99.90;;;;;;4949743;28;20047;-84
2023/06/26 05:15:32;;;;;;;5.03;3.75;;;22.10;99.90;;;;;;4934101;29;20047;-88
2023/06/26 05:18:02;;;;;;;11.23;5.43;;;22.10;99.90;;;;;;4933967;29;20125;-95
2023/06/26 05:21:02;;;;;;;10.85;6.10;;;21.90;99.90;;;;;;4918442;29;20044;-93
2023/06/26 05:23:44;;;;;;;7.43;5.65;;;21.60;99.90;;;;;;4919625;29;20186;-92
2023/06/26 05:26:13;;;;;;;7.43;5.82;;;21.50;99.90;;;;;;4931027;29;20039;-93
2023/06/26 05:28:44;;;;;;;7.53;5.43;;;21.10;99.90;;;;;;4931574;29;20120;-94
2023/06/26 05:31:10;;;;;;;7.15;6.00;;;21.20;99.90;;;;;;4934484;29;20510;-92
2023/06/26 05:33:40;;;;;;;7.50;5.50;;;20.90;99.90;;;;;;4918540;29;20073;-94
2023/06/26 05:40:19;;;;;;;9.00;6.10;;;20.60;99.90;;;;;;4875904;28;20128;-96
2023/06/26 05:43:04;;;;;;;;;;;;;;;;;;;;;
2023/06/26 05:45:50;;;;;;;7.57;4.35;;;20.20;99.90;;;;;;4960387;28;20048;-96
2023/06/26 05:48:16;;;;;;;7.00;4.20;;;20.10;99.90;;;;;;4917833;29;20051;-93
2023/06/26 05:50:51;;;;;;;4.95;3.85;;;20.00;99.90;;;;;;4940662;29;20047;-96
2023/06/26 05:53:17;;;;;;;8.20;4.30;;;19.90;99.90;;;;;;4940240;29;20129;-96
2023/06/26 05:56:09;;;;;;;8.65;4.40;;;19.80;99.90;;;;;;4929691;28;20147;-96
2023/06/26 05:58:36;;;;;;;6.95;3.30;;;19.80;99.90;;;;;;4926400;29;20043;-96
2023/06/26 06:01:05;;;;;;;6.28;3.30;;;19.70;99.90;;;;;;4939819;28;20035;-95
2023/06/26 06:03:31;;;;;;;7.10;4.03;;;19.70;99.90;;;;;;4929975;29;20822;-95
2023/06/26 06:05:56;;;;;;;6.97;3.03;;;19.70;99.90;;;;;;4923702;28;20479;-95
2023/06/26 06:08:25;;;;;;;6.90;3.20;;;19.60;99.90;;;;;;4936366;29;20042;-95
2023/06/26 06:10:56;;;;;;;4.90;2.42;;;19.60;99.90;;;;;;4929315;29;20098;-95
2023/06/26 06:13:22;;;;;;;4.93;2.30;;;19.60;99.90;;;;;;4922744;29;20047;-95
2023/06/26 06:15:48;;;;;;;10.00;2.80;;;19.70;99.90;;;;;;4939121;29;20482;-95
2023/06/26 06:18:14;;;;;;;5.47;2.73;;;19.80;99.90;;;;;;4955330;28;20039;-89
2023/06/26 06:20:40;;;;;;;6.93;2.55;;;20.00;99.90;;;;;;4934498;29;21061;-89
2023/06/26 06:23:06;;;;;;;5.28;2.80;;;20.20;99.90;;;;;;4937858;29;20383;-91
2023/06/26 06:25:32;;;;;;;5.22;2.10;;;20.30;99.90;;;;;;4923408;29;20076;-88
2023/06/26 06:27:57;;;;;;;7.53;2.72;;;20.20;99.90;;;;;;4926459;29;20121;-89
2023/06/26 06:30:23;;;;;;;9.10;2.85;;;20.20;99.90;;;;;;4917736;29;20043;-90
2023/06/26 06:32:51;;;;;;;7.93;2.55;;;20.10;99.90;;;;;;4907729;29;20476;-90
2023/06/26 06:35:20;;;;;;;6.65;2.60;;;20.10;99.90;;;;;;4923828;29;20499;-90
2023/06/26 06:37:46;;;;;;;6.20;2.20;;;20.10;99.90;;;;;;4902927;29;20046;-90
2023/06/26 06:40:12;;;;;;;3.63;1.92;;;20.10;99.90;;;;;;4923575;29;20039;-89
2023/06/26 06:42:38;;;;;;;8.15;2.50;;;20.20;99.90;;;;;;4938770;29;20043;-90
2023/06/26 06:45:05;;;;;;;7.65;2.70;;;20.30;99.90;;;;;;4918908;29;20102;-90
2023/06/26 06:47:32;;;;;;;9.10;2.17;;;20.40;99.90;;;;;;4918671;29;20051;-88
2023/06/26 06:49:58;;;;;;;;;;;20.40;99.90;;;;;;4920461;29;20126;-89
2023/06/26 06:52:24;;;;;;;6.75;1.70;;;20.60;99.90;;;;;;4986695;28;19922;-90
2023/06/26 06:54:54;;;;;;;6.20;1.80;;;20.80;99.90;;;;;;4911628;29;20087;-91
2023/06/26 06:57:21;;;;;;;4.28;1.40;;;21.20;99.90;;;;;;4938859;29;20626;-93
2023/06/26 06:59:48;;;;;;;4.40;1.63;;;21.50;99.90;;;;;;4919095;29;20040;-93
2023/06/26 07:02:15;;;;;;;;;;;21.80;99.90;;;;;;4938298;29;20483;-93
2023/06/26 07:04:40;;;;;;;6.15;1.58;;;22.10;99.90;;;;;;4970189;28;19927;-91
2023/06/26 07:07:06;;;;;;;3.28;1.38;;;22.50;99.90;;;;;;4905625;29;20403;-93
2023/06/26 07:09:32;;;;;;;4.30;1.70;;;23.00;99.90;;;;;;4904954;29;20048;-92
2023/06/26 07:11:58;;;;;;;5.10;1.70;;;23.20;99.90;;;;;;4906469;29;20042;-93
2023/06/26 07:14:23;;;;;;;3.20;1.20;;;23.20;99.90;;;;;;4918432;29;20042;-92
2023/06/26 07:16:49;;;;;;;3.85;1.15;;;23.10;99.90;;;;;;4897950;29;20122;-92
2023/06/26 07:19:15;;;;;;;3.50;1.42;;;23.60;99.90;;;;;;4922190;29;20036;-93
2023/06/26 07:21:41;;;;;;;2.63;1.40;;;24.10;99.90;;;;;;4921374;29;20044;-93
2023/06/26 07:24:07;;;;;;;1.87;0.70;;;24.50;99.90;;;;;;4907285;29;20038;-93
2023/06/26 07:26:33;;;;;;;2.20;1.00;;;24.50;99.90;;;;;;4921526;29;20125;-93
2023/06/26 07:28:58;;;;;;;3.37;1.20;;;24.20;99.90;;;;;;4906503;29;20441;-91
2023/06/26 07:31:24;;;;;;;3.90;1.15;;;23.90;99.90;;;;;;4914369;29;20040;-92
2023/06/26 07:33:50;;;;;;;4.25;1.20;;;23.70;99.90;;;;;;4921838;29;20036;-93
2023/06/26 07:36:15;;;;;;;3.55;1.13;;;23.90;99.90;;;;;;4934110;29;20051;-92
2023/06/26 07:38:41;;;;;;;4.25;1.00;;;23.60;99.90;;;;;;4922433;29;20039;-92
2023/06/26 07:41:07;;;;;;;2.78;1.00;;;24.10;99.90;;;;;;4904463;29;20120;-91
2023/06/26 07:43:32;;;;;;;2.85;0.90;;;24.20;99.90;;;;;;4902124;29;20136;-91
2023/06/26 07:45:58;;;;;;;2.47;0.90;;;23.70;99.90;;;;;;4905545;29;20090;-92
2023/06/26 07:48:25;;;;;;;3.17;1.00;;;23.60;99.90;;;;;;4897403;29;20465;-93
2023/06/26 07:50:50;;;;;;;1.45;0.60;;;23.60;99.90;;;;;;4920280;29;20039;-92
2023/06/26 07:53:16;;;;;;;1.67;0.93;;;23.60;99.90;;;;;;4914576;29;20043;-93
2023/06/26 07:55:43;;;;;;;2.08;0.93;;;23.40;99.90;;;;;;4915189;29;20080;-91
2023/06/26 07:58:09;;;;;;;2.03;0.70;;;23.10;99.90;;;;;;4929833;29;20043;-92
2023/06/26 08:00:34;;;;;;;1.67;0.90;;;22.70;99.90;;;;;;4906062;29;20044;-91
2023/06/26 08:03:00;;;;;;;2.25;0.70;;;22.30;99.90;;;;;;4905368;29;20047;-93
2023/06/26 08:05:26;;;;;;;1.10;0.77;;;21.10;99.90;;;;;;4901854;29;20118;-91
2023/06/26 08:07:52;;;;;;;2.28;0.82;;;21.90;99.90;;;;;;4916172;29;20040;-92
2023/06/26 08:10:17;;;;;;;2.17;0.70;;;21.90;99.90;;;;;;4915010;29;20062;-91
2023/06/26 08:12:44;;;;;;;2.28;0.70;;;21.80;99.90;;;;;;4915073;29;20040;-91
2023/06/26 08:15:11;;;;;;;2.78;0.90;;;21.70;99.90;;;;;;4917530;29;20329;-93
2023/06/26 08:17:38;;;;;;;1.98;0.73;;;21.40;99.90;;;;;;4925785;29;20048;-92
2023/06/26 08:20:04;;;;;;;3.40;0.70;;;21.30;99.90;;;;;;4931897;29;20208;-91
2023/06/26 08:22:30;;;;;;;2.97;0.85;;;21.20;99.90;;;;;;4918111;29;20043;-92
2023/06/26 08:24:56;;;;;;;1.63;0.82;;;21.10;99.90;;;;;;4937747;29;20142;-92
2023/06/26 08:27:22;;;;;;;3.40;0.90;;;21.10;99.90;;;;;;4920966;29;20542;-92
2023/06/26 08:29:48;;;;;;;3.60;0.73;;;21.00;99.90;;;;;;4903989;29;20059;-92
2023/06/26 08:32:14;;;;;;;4.53;1.23;;;21.00;99.90;;;;;;4921213;29;20082;-92
2023/06/26 08:34:39;;;;;;;4.78;1.10;;;21.10;99.90;;;;;;4936791;29;20039;-92
2023/06/26 08:37:05;;;;;;;2.03;0.70;;;21.40;99.90;;;;;;4937452;29;20050;-91
2023/06/26 08:39:31;;;;;;;2.83;1.00;;;21.90;99.90;;;;;;4921866;29;20035;-92
2023/06/26 08:41:57;;;;;;;2.80;0.85;;;22.20;99.90;;;;;;4921434;29;20106;-92
2023/06/26 08:44:24;;;;;;;4.18;1.08;;;22.30;99.90;;;;;;4921436;29;20054;-92
2023/06/26 08:46:51;;;;;;;2.30;1.08;;;22.20;99.90;;;;;;4953505;29;20073;-92
2023/06/26 08:49:47;;;;;;;2.92;1.10;;;22.10;99.90;;;;;;4936583;29;20094;-91
2023/06/26 08:52:30;;;;;;;1.85;0.90;;;21.80;99.90;;;;;;4922895;29;20039;-91
2023/06/26 08:54:59;;;;;;;4.03;1.10;;;22.00;99.90;;;;;;4932015;29;20067;-90
2023/06/26 08:57:26;;;;;;;2.83;1.10;;;22.20;99.90;;;;;;4936876;29;20573;-91
2023/06/26 08:59:52;;;;;;;2.08;0.93;;;22.20;99.90;;;;;;4936763;29;20039;-91
2023/06/26 09:02:18;;;;;;;3.58;0.80;;;22.20;99.90;;;;;;4920806;29;20050;-91
2023/06/26 09:04:44;;;;;;;4.13;1.10;;;22.50;99.90;;;;;;4936975;29;20050;-90
2023/06/26 09:07:10;;;;;;;2.28;0.88;;;22.90;99.90;;;;;;4937072;29;20467;-91
2023/06/26 09:09:36;;;;;;;2.10;0.70;;;23.20;99.90;;;;;;4909223;29;20039;-91
2023/06/26 09:12:05;;;;;;;3.58;1.10;;;22.70;99.90;;;;;;4925017;29;20090;-91
2023/06/26 09:14:32;;;;;;;2.17;1.05;;;22.20;99.90;;;;;;4924688;29;20048;-91
2023/06/26 09:16:58;;;;;;;2.72;1.17;;;22.10;99.90;;;;;;4922994;29;20042;-90
2023/06/26 09:19:23;;;;;;;2.75;1.10;;;22.70;99.90;;;;;;4918665;29;20495;-94
2023/06/26 09:21:51;;;;;;;3.30;1.10;;;22.90;99.90;;;;;;4920962;29;20491;-91
2023/06/26 09:24:17;;;;;;;1.35;0.75;;;22.60;99.90;;;;;;4923854;29;20039;-91
2023/06/26 09:26:43;;;;;;;2.53;1.20;;;22.40;99.90;;;;;;4903036;29;20051;-93
2023/06/26 09:29:10;;;;;;;3.20;0.90;;;22.10;99.90;;;;;;4907083;29;20040;-93
2023/06/26 09:31:37;;;;;;;5.10;1.17;;;21.80;99.90;;;;;;4924285;29;20122;-92
2023/06/26 09:34:03;;;;;;;1.75;0.90;;;21.80;99.90;;;;;;4919901;29;20087;-94
2023/06/26 09:36:33;;;;;;;4.20;1.07;;;21.80;99.90;;;;;;4925454;29;20510;-91
2023/06/26 09:39:03;;;;;;;3.70;1.05;;;22.00;99.90;;;;;;4932571;29;20042;-91
2023/06/26 09:41:30;;;;;;;2.20;0.90;;;21.70;99.90;;;;;;4938019;29;20039;-91
2023/06/26 09:44:00;;;;;;;2.15;1.10;;;21.80;99.90;;;;;;4921517;29;20040;-92
2023/06/26 09:46:27;;;;;;;2.33;0.93;;;22.00;99.90;;;;;;4935755;29;20388;-93
2023/06/26 09:49:10;;;;;;;3.38;1.02;;;22.20;99.90;;;;;;4924577;29;20419;-92
2023/06/26 09:51:38;;;;;;;2.55;1.17;;;22.50;99.90;;;;;;4931847;29;20085;-92
2023/06/26 09:54:05;;;;;;;2.15;0.90;;;22.50;99.90;;;;;;4920759;29;20139;-89
2023/06/26 09:56:34;;;;;;;2.25;0.98;;;22.20;99.90;;;;;;4956260;29;20039;-92
2023/06/26 09:59:02;;;;;;;2.55;1.02;;;22.00;99.90;;;;;;4939890;29;20071;-91
2023/06/26 10:01:29;;;;;;;1.83;1.05;;;22.10;99.90;;;;;;4939927;29;20047;-91
2023/06/26 10:03:58;;;;;;;3.03;0.95;;;22.30;99.90;;;;;;4938186;29;20478;-92
2023/06/26 10:06:35;;;;;;;4.00;1.20;;;22.30;99.90;;;;;;4921135;29;20043;-91
2023/06/26 10:09:03;;;;;;;1.67;1.13;;;22.30;99.90;;;;;;4928242;29;20035;-92
2023/06/26 10:11:40;;;;;;;2.65;1.17;;;22.50;99.90;;;;;;4924366;29;20050;-93
2023/06/26 10:14:09;;;;;;;3.40;1.25;;;22.50;99.90;;;;;;4939843;29;20074;-92
2023/06/26 10:16:37;;;;;;;3.45;1.27;;;22.80;99.90;;;;;;4939518;29;20111;-91
2023/06/26 10:19:07;;;;;;;2.08;1.00;;;23.00;99.90;;;;;;4955810;28;20039;-90
2023/06/26 10:21:38;;;;;;;3.03;1.20;;;23.00;99.90;;;;;;4938554;29;20039;-92
2023/06/26 10:24:06;;;;;;;3.30;1.40;;;22.80;99.90;;;;;;4939471;29;20065;-91
2023/06/26 10:26:37;;;;;;;3.22;1.10;;;22.80;99.90;;;;;;4921359;29;20040;-92
2023/06/26 10:29:05;;;;;;;2.00;1.05;;;23.00;99.90;;;;;;4939059;29;20051;-88
2023/06/26 10:31:31;;;;;;;2.90;1.20;;;23.20;99.90;;;;;;4923605;29;20057;-92
2023/06/26 10:33:57;;;;;;;3.53;1.30;;;23.40;99.90;;;;;;4905537;29;20048;-91
2023/06/26 10:36:31;;;;;;;3.13;1.27;;;23.60;99.90;;;;;;4938712;29;20043;-92
2023/06/26 10:39:17;;;;;;;6.65;1.65;;;23.20;99.90;;;;;;4935195;29;20078;-92
2023/06/26 10:41:44;;;;;;;4.15;1.65;;;23.00;99.90;;;;;;4935650;29;20062;-93
2023/06/26 10:44:11;;;;;;;;;;;22.90;99.90;;;;;;4952838;29;20036;-92
2023/06/26 10:46:54;;;;;;;2.28;1.10;;;22.60;99.90;;;;;;4970040;28;20414;-93
2023/06/26 10:49:21;;;;;;;2.40;1.10;;;22.80;99.90;;;;;;4923256;29;20074;-94
2023/06/26 10:51:50;;;;;;;1.60;0.90;;;22.80;99.90;;;;;;4921448;29;20134;-93
2023/06/26 10:54:18;;;;;;;2.58;0.93;;;23.00;99.90;;;;;;4922956;29;20402;-92
2023/06/26 10:56:47;;;;;;;2.40;1.02;;;23.10;99.90;;;;;;4907465;29;20081;-91
2023/06/26 10:59:25;;;;;;;1.63;0.95;;;22.90;99.90;;;;;;4938791;29;20035;-92
2023/06/26 11:02:21;;;;;;;3.47;1.25;;;22.50;99.90;;;;;;4933437;29;20427;-93
2023/06/26 11:04:51;;;;;;;2.70;1.15;;;22.30;99.90;;;;;;4905740;29;20087;-92
2023/06/26 11:07:24;;;;;;;2.47;0.98;;;22.10;99.90;;;;;;4935472;29;20081;-92
2023/06/26 11:10:05;;;;;;;1.95;1.00;;;22.20;99.90;;;;;;4923480;29;20050;-93
2023/06/26 11:12:38;;;;;;;2.30;0.98;;;22.60;99.90;;;;;;4938551;29;20058;-92
2023/06/26 11:15:09;;;;;;;2.42;1.25;;;22.80;99.90;;;;;;4936883;29;20043;-91
2023/06/26 11:17:36;;;;;;;3.35;1.20;;;22.60;99.90;;;;;;4920512;28;20035;-92
2023/06/26 11:20:07;;;;;;;4.28;0.70;;;22.40;99.90;;;;;;4945710;28;20119;-93
2023/06/26 11:22:36;;;;;;;2.47;0.80;;;22.30;99.90;;;;;;4918746;29;20047;-92
2023/06/26 11:25:03;;;;;;;2.20;0.80;;;22.30;99.90;;;;;;4923435;29;20117;-92
2023/06/26 11:27:53;;;;;;;2.47;0.70;;;22.10;99.90;;;;;;4938070;28;20130;-93
2023/06/26 11:30:26;;;;;;;2.50;0.90;;;22.10;99.90;;;;;;4932276;29;20102;-90
2023/06/26 11:32:52;;;;;;;4.47;1.15;;;22.10;99.90;;;;;;4929218;29;20046;-90
2023/06/26 11:35:29;;;;;;;3.50;0.75;;;22.20;99.90;;;;;;4931474;29;20043;-93
2023/06/26 11:38:00;;;;;;;;;;;22.40;99.90;;;;;;4916397;29;20051;-91
2023/06/26 11:40:27;;;;;;;3.15;0.98;;;22.30;99.90;;;;;;4916962;29;20286;-92
2023/06/26 11:42:53;;;;;;;3.80;0.70;;;22.20;99.90;;;;;;4918650;29;20052;-91
2023/06/26 11:45:22;;;;;;;2.97;0.85;;;22.30;99.90;;;;;;4928093;29;20752;-92
2023/06/26 11:47:49;;;;;;;2.65;0.60;;;22.30;99.90;;;;;;4932651;29;20043;-92
2023/06/26 11:50:16;;;;;;;3.05;0.93;;;22.40;99.90;;;;;;4931325;29;20094;-92
2023/06/26 11:52:43;;;;;;;3.50;0.85;;;22.50;99.90;;;;;;4918089;29;20064;-92
2023/06/26 11:55:12;;;;;;;2.42;0.65;;;22.50;99.90;;;;;;4919296;29;20682;-92
2023/06/26 11:57:38;;;;;;;3.30;0.80;;;22.40;99.90;;;;;;4930228;29;20043;-92
2023/06/26 12:00:15;;;;;;;1.55;0.60;;;22.20;99.90;;;;;;4929237;29;20077;-92
2023/06/26 12:02:43;;;;;;;2.03;0.70;;;22.20;99.90;;;;;;4931822;29;20047;-91
2023/06/26 12:05:24;;;;;;;2.15;0.65;;;22.20;99.90;;;;;;4925557;29;20043;-93
2023/06/26 12:07:51;;;;;;;5.43;0.88;;;22.10;99.90;;;;;;4928963;29;20053;-91
2023/06/26 12:10:18;;;;;;;2.55;0.80;;;22.10;99.90;;;;;;4926669;29;20051;-90
2023/06/26 12:12:44;;;;;;;;;;;22.10;99.90;;;;;;4926805;29;20062;-91
2023/06/26 12:15:14;;;;;;;3.38;0.60;;;22.00;99.90;;;;;;4928722;29;19962;-91
2023/06/26 12:17:40;;;;;;;6.25;1.25;;;22.00;99.90;;;;;;4925022;29;20125;-91
2023/06/26 12:20:25;;;;;;;1.88;0.57;;;22.00;99.90;;;;;;4899051;29;20047;-91
2023/06/26 12:22:56;;;;;;;3.08;0.70;;;21.90;99.90;;;;;;4925830;29;20035;-91
2023/06/26 12:25:23;;;;;;;2.60;0.80;;;21.80;99.90;;;;;;4927236;29;20066;-92
2023/06/26 12:27:49;;;;;;;2.63;0.70;;;21.80;99.90;;;;;;4910182;29;20453;-90
2023/06/26 12:30:15;;;;;;;2.58;0.80;;;21.80;99.90;;;;;;4921596;29;20048;-92
2023/06/26 12:32:46;;;;;;;3.15;0.63;;;21.80;99.90;;;;;;4920962;29;20371;-91
2023/06/26 12:35:12;;;;;;;2.83;0.77;;;22.00;99.90;;;;;;4928499;29;20431;-91
2023/06/26 12:37:40;;;;;;;2.78;0.80;;;21.90;99.90;;;;;;4920212;29;20042;-92
2023/06/26 12:40:22;;;;;;;4.03;0.90;;;21.80;99.90;;;;;;4907396;29;20124;-91
2023/06/26 12:42:48;;;;;;;1.77;0.68;;;21.70;99.90;;;;;;4923655;29;20411;-92
2023/06/26 12:45:17;;;;;;;2.47;0.60;;;21.80;99.90;;;;;;4940271;29;20141;-92
2023/06/26 12:47:42;;;;;;;3.13;0.90;;;21.90;99.90;;;;;;4920811;29;20047;-92
2023/06/26 12:50:09;;;;;;;1.63;0.70;;;21.90;99.90;;;;;;4910859;29;20799;-91
2023/06/26 12:52:34;;;;;;;1.98;0.80;;;21.90;99.90;;;;;;4919793;29;20976;-92
2023/06/26 12:55:01;;;;;;;2.33;0.60;;;21.90;99.90;;;;;;4924477;29;20071;-91
2023/06/26 12:57:27;;;;;;;2.33;0.73;;;21.80;99.90;;;;;;4943219;29;20047;-90
2023/06/26 12:59:53;;;;;;;2.92;0.65;;;21.70;99.90;;;;;;4911150;28;20039;-91